Time;durP1;ratioP1;P1;durP2;ratioP2;P2;SDS_P1;SDS_P2;PMS_P1;PMS_P2;Temp;Humidity;BMP_temperature;BMP_pressure;BME280_temperature;BME280_humidity;BME280_pressure;Samples;Min_cycle;Max_cycle;Signal;HPM_P1;HPM_P2
2022/05/24 00:00:25;;;;;;;10.40;3.05;;;;;;;16.76;67.61;100414.00;5050647;28;20387;-79
2022/05/24 00:02:51;;;;;;;4.30;2.50;;;;;;;16.75;67.20;100397.88;5050269;28;20029;-81
2022/05/24 00:05:17;;;;;;;5.35;2.22;;;;;;;16.80;67.11;100400.91;5051508;28;20453;-80
2022/05/24 00:07:44;;;;;;;11.73;2.80;;;;;;;16.85;66.98;100395.81;5051678;28;20483;-80
2022/05/24 00:10:13;;;;;;;9.18;2.38;;;;;;;16.85;67.58;100387.66;5051396;28;20029;-79
2022/05/24 00:12:39;;;;;;;5.22;2.47;;;;;;;16.83;67.72;100384.28;5050345;28;20379;-79
2022/05/24 00:15:19;;;;;;;5.70;2.70;;;;;;;16.83;68.02;100397.88;5054548;28;20057;-80
2022/05/24 00:17:55;;;;;;;20.75;3.95;;;;;;;16.84;68.51;100405.00;5054933;28;20179;-79
2022/05/24 00:20:23;;;;;;;5.25;3.40;;;;;;;16.86;68.75;100409.25;5054912;28;20029;-79
2022/05/24 00:22:48;;;;;;;9.75;3.42;;;;;;;16.92;69.31;100410.41;5054910;28;20029;-80
2022/05/24 00:25:13;;;;;;;8.23;3.00;;;;;;;16.95;69.27;100401.94;5055088;28;20029;-79
2022/05/24 00:27:39;;;;;;;6.03;2.67;;;;;;;16.97;69.68;100410.75;5057722;28;20043;-80
2022/05/24 00:30:05;;;;;;;16.42;3.95;;;;;;;16.94;69.89;100397.50;5055055;28;20517;-81
2022/05/24 00:32:31;;;;;;;5.65;2.88;;;;;;;16.95;70.03;100401.94;5054841;28;20025;-80
2022/05/24 00:34:57;;;;;;;12.07;3.13;;;;;;;16.90;70.29;100412.47;5054731;28;20020;-80
2022/05/24 00:37:24;;;;;;;5.57;3.30;;;;;;;16.88;70.24;100404.47;5054437;28;20106;-80
2022/05/24 00:39:50;;;;;;;9.93;3.70;;;;;;;16.96;70.19;100400.91;5055074;28;20104;-80
2022/05/24 00:42:22;;;;;;;11.77;4.90;;;;;;;16.99;70.42;100392.44;5054545;28;20111;-80
2022/05/24 00:44:55;;;;;;;16.38;5.13;;;;;;;16.97;70.80;100396.34;5054661;28;20055;-80
2022/05/24 00:47:32;;;;;;;12.23;6.50;;;;;;;16.99;71.08;100397.84;5054822;28;20365;-80
2022/05/24 00:50:02;;;;;;;13.60;5.90;;;;;;;17.00;71.44;100398.72;5054506;28;20025;-80
2022/05/24 00:52:42;;;;;;;15.15;7.30;;;;;;;17.00;71.13;100396.00;5054395;28;20028;-80
2022/05/24 00:55:11;;;;;;;17.17;7.22;;;;;;;16.88;72.13;100399.03;5054502;28;20108;-81
2022/05/24 00:57:48;;;;;;;19.70;7.80;;;;;;;16.90;71.80;100390.75;5054718;28;20028;-79
2022/05/24 01:00:18;;;;;;;13.75;8.60;;;;;;;16.83;71.57;100392.44;5054410;28;20017;-79
2022/05/24 01:02:45;;;;;;;12.63;9.30;;;;;;;16.83;71.57;100396.00;5054168;28;20074;-81
2022/05/24 01:05:15;;;;;;;16.38;8.90;;;;;;;16.89;71.19;100405.34;5054339;28;20032;-81
2022/05/24 01:07:40;;;;;;;20.63;9.35;;;;;;;16.85;71.49;100403.97;5054030;28;20398;-80
2022/05/24 01:10:17;;;;;;;16.88;8.85;;;;;;;16.84;71.54;100394.13;5054157;28;20037;-80
2022/05/24 01:12:46;;;;;;;15.13;7.95;;;;;;;16.84;71.64;100405.00;5054464;28;20029;-81
2022/05/24 01:15:14;;;;;;;16.30;7.93;;;;;;;16.84;71.60;100408.56;5054040;28;20040;-80
2022/05/24 01:17:40;;;;;;;21.85;7.80;;;;;;;16.84;71.55;100410.44;5054213;28;20132;-79
2022/05/24 01:20:06;;;;;;;13.40;6.40;;;;;;;16.71;71.55;100407.38;5052953;28;20116;-80
2022/05/24 01:23:18;;;;;;;11.90;7.20;;;;;;;16.59;72.50;100401.44;5054161;28;20036;-80
2022/05/24 01:26:11;;;;;;;13.68;7.28;;;;;;;16.60;72.56;100421.28;5053230;28;20031;-80
2022/05/24 01:28:51;;;;;;;15.50;6.88;;;;;;;16.60;73.20;100415.88;5053844;28;20483;-80
2022/05/24 01:31:18;;;;;;;16.25;5.97;;;;;;;16.60;72.96;100415.88;5053799;28;20129;-81
2022/05/24 01:36:30;;;;;;;15.57;4.50;;;;;;;16.68;72.64;100418.56;5053830;28;20465;-80
2022/05/24 01:39:03;;;;;;;9.25;5.10;;;;;;;16.71;72.84;100415.53;5053608;28;20111;-81
2022/05/24 01:41:36;;;;;;;9.00;5.32;;;;;;;16.71;72.81;100423.66;5053642;28;20459;-81
2022/05/24 01:44:03;;;;;;;9.07;4.93;;;;;;;16.68;72.68;100419.44;5053669;28;20102;-81
2022/05/24 01:46:37;;;;;;;14.68;5.20;;;;;;;16.60;73.20;100422.16;5053643;28;20107;-80
2022/05/24 01:49:09;;;;;;;22.05;5.60;;;;;;;16.58;73.22;100407.88;5053584;28;20032;-80
2022/05/24 01:51:42;;;;;;;10.13;5.55;;;;;;;16.70;72.72;100413.81;5053596;28;20650;-81
2022/05/24 01:54:08;;;;;;;14.68;6.05;;;;;;;16.76;72.68;100426.72;5052231;28;20383;-81
2022/05/24 01:56:47;;;;;;;10.77;5.18;;;;;;;16.79;72.54;100410.06;5053483;28;20039;-81
2022/05/24 01:59:16;;;;;;;9.30;5.18;;;;;;;16.83;73.02;100416.88;5053418;28;20033;-80
2022/05/24 02:01:57;;;;;;;9.98;4.38;;;;;;;16.94;72.65;100411.09;5053580;28;20025;-80
2022/05/24 02:04:24;;;;;;;10.73;4.65;;;;;;;17.00;72.41;100418.56;5053749;28;20398;-80
2022/05/24 02:07:06;;;;;;;11.82;3.72;;;;;;;17.08;71.50;100415.00;5053672;28;20037;-79
2022/05/24 02:09:34;;;;;;;10.80;2.97;;;;;;;17.11;70.57;100407.34;5053292;28;20040;-79
2022/05/24 02:12:05;;;;;;;6.53;3.00;;;;;;;17.11;69.35;100399.19;5053317;28;20033;-79
2022/05/24 02:14:35;;;;;;;9.63;3.33;;;;;;;17.18;70.22;100411.09;5053439;28;20037;-79
2022/05/24 02:17:11;;;;;;;5.03;3.13;;;;;;;17.21;69.57;100408.03;5051843;28;20055;-81
2022/05/24 02:19:42;;;;;;;7.65;2.83;;;;;;;17.27;69.70;100410.06;5053245;28;20501;-81
2022/05/24 02:22:15;;;;;;;5.90;3.70;;;;;;;17.31;70.02;100394.22;5052780;28;20033;-81
2022/05/24 02:24:40;;;;;;;7.93;3.33;;;;;;;17.32;70.54;100391.34;5052951;28;20051;-80
2022/05/24 02:27:06;;;;;;;12.18;3.50;;;;;;;17.39;70.60;100403.22;5052806;28;20479;-80
2022/05/24 02:29:32;;;;;;;7.10;3.40;;;;;;;17.43;70.84;100410.00;5052925;28;20031;-79
2022/05/24 02:31:57;;;;;;;7.97;3.08;;;;;;;17.45;70.56;100409.84;5052698;28;20028;-79
2022/05/24 02:34:23;;;;;;;5.43;2.85;;;;;;;17.43;70.65;100415.44;5052985;28;20383;-80
2022/05/24 02:36:48;;;;;;;7.35;2.95;;;;;;;17.48;70.77;100417.63;5052539;28;20136;-80
2022/05/24 02:39:14;;;;;;;6.30;2.92;;;;;;;17.51;70.64;100419.16;5052742;28;20037;-79
2022/05/24 02:41:39;;;;;;;4.50;3.20;;;;;;;17.51;70.09;100421.88;5052502;28;20037;-79
2022/05/24 02:44:11;;;;;;;5.72;2.78;;;;;;;17.55;70.29;100418.66;5052637;28;20028;-81
2022/05/24 02:46:39;;;;;;;11.60;3.63;;;;;;;17.61;70.21;100422.56;5052615;28;20032;-80
2022/05/24 02:49:07;;;;;;;6.20;2.97;;;;;;;17.64;69.97;100419.50;5052561;28;20040;-81
2022/05/24 02:51:33;;;;;;;4.80;2.50;;;;;;;17.66;69.67;100420.16;5052398;28;20075;-80
2022/05/24 02:54:00;;;;;;;6.05;3.00;;;;;;;17.67;70.02;100414.56;5052358;28;20032;-80
2022/05/24 02:56:25;;;;;;;6.13;3.28;;;;;;;17.66;69.56;100412.84;5052271;28;20031;-81
2022/05/24 02:58:51;;;;;;;11.27;3.08;;;;;;;17.69;69.72;100409.78;5052354;28;20020;-80
2022/05/24 03:01:22;;;;;;;8.60;3.08;;;;;;;17.74;69.95;100417.41;5052013;28;20036;-80
2022/05/24 03:03:50;;;;;;;12.00;2.92;;;;;;;17.74;69.96;100407.38;5052042;28;20060;-81
2022/05/24 03:06:16;;;;;;;8.20;3.38;;;;;;;17.75;70.11;100408.22;5052211;28;20114;-81
2022/05/24 03:11:25;;;;;;;10.93;2.80;;;;;;;17.75;68.60;100409.06;5052356;28;20056;-81
2022/05/24 03:16:35;;;;;;;4.70;3.20;;;;;;;17.86;69.02;100411.41;5051741;28;20113;-80
2022/05/24 03:19:01;;;;;;;7.30;3.38;;;;;;;17.85;69.40;100409.72;5052076;28;20462;-80
2022/05/24 03:21:26;;;;;;;8.05;3.40;;;;;;;17.85;69.37;100415.16;5051494;28;20029;-79
2022/05/24 03:23:51;;;;;;;11.38;3.47;;;;;;;17.87;68.89;100409.53;5051728;28;20035;-79
2022/05/24 03:26:17;;;;;;;8.82;3.22;;;;;;;17.76;67.43;100410.78;5050616;28;20024;-81
2022/05/24 03:28:43;;;;;;;7.13;3.58;;;;;;;17.80;67.20;100412.09;5050853;28;20040;-81
2022/05/24 03:31:09;;;;;;;8.90;3.97;;;;;;;17.77;67.56;100422.47;5051158;28;20029;-79
2022/05/24 03:33:35;;;;;;;12.77;4.90;;;;;;;17.73;67.77;100424.75;5050990;28;20121;-79
2022/05/24 03:36:01;;;;;;;16.83;4.70;;;;;;;17.73;68.36;100432.03;5053003;28;20511;-81
2022/05/24 03:38:28;;;;;;;12.30;5.32;;;;;;;17.69;68.82;100430.69;5059198;28;20029;-81
2022/05/24 03:40:55;;;;;;;18.10;5.90;;;;;;;17.68;69.02;100426.25;5051942;28;20060;-77
2022/05/24 03:43:20;;;;;;;31.65;6.72;;;;;;;17.72;69.10;100424.91;5053140;28;20033;-77
2022/05/24 03:45:47;;;;;;;28.25;8.07;;;;;;;17.72;69.14;100433.06;5054691;28;20056;-78
2022/05/24 03:48:13;;;;;;;20.65;5.63;;;;;;;17.67;69.25;100438.19;5057861;28;20451;-78
2022/05/24 03:50:39;;;;;;;14.98;4.93;;;;;;;17.69;69.37;100441.56;5066301;28;20036;-77
2022/05/24 03:53:04;;;;;;;15.23;4.93;;;;;;;17.71;68.36;100444.94;5066113;28;20037;-78
2022/05/24 03:55:30;;;;;;;13.20;5.57;;;;;;;17.71;68.05;100442.22;5056582;28;20032;-79
2022/05/24 03:58:02;;;;;;;23.77;5.18;;;;;;;17.67;68.12;100444.47;5063376;28;20024;-78
2022/05/24 04:00:48;;;;;;;16.00;5.03;;;;;;;17.69;67.62;100430.69;5035423;28;20044;-83
2022/05/24 04:03:14;;;;;;;27.67;5.75;;;;;;;17.74;67.44;100434.56;5064588;28;20036;-81
2022/05/24 04:05:40;;;;;;;40.70;5.35;;;;;;;17.76;67.45;100440.72;5075508;28;20024;-82
2022/05/24 04:08:05;;;;;;;17.15;4.57;;;;;;;17.80;67.12;100442.03;5070920;28;20020;-82
2022/05/24 04:10:32;;;;;;;27.50;4.30;;;;;;;17.83;67.21;100438.09;5056796;28;20047;-81
2022/05/24 04:12:58;;;;;;;22.60;4.90;;;;;;;17.86;67.30;100446.75;5055865;28;20029;-81
2022/05/24 04:15:24;;;;;;;18.52;5.05;;;;;;;17.86;67.28;100444.03;5055613;28;20035;-82
2022/05/24 04:17:53;;;;;;;25.55;6.63;;;;;;;17.86;68.01;100451.34;5055044;28;20072;-79
2022/05/24 04:20:20;;;;;;;51.83;8.45;;;;;;;17.88;67.95;100452.06;5060189;28;20024;-77
2022/05/24 04:22:46;;;;;;;30.77;7.70;;;;;;;17.96;67.55;100443.84;5074769;28;20059;-77
2022/05/24 04:25:13;;;;;;;19.65;5.80;;;;;;;18.00;67.06;100447.06;5074781;28;20463;-78
2022/05/24 04:27:39;;;;;;;43.22;7.43;;;;;;;18.06;66.91;100444.47;5074740;28;20029;-81
2022/05/24 04:30:06;;;;;;;36.75;5.68;;;;;;;18.16;66.99;100458.72;5076253;28;20028;-84
2022/05/24 04:32:32;;;;;;;16.88;7.18;;;;;;;18.12;66.21;100459.25;5075250;28;20471;-79
2022/05/24 04:34:58;;;;;;;39.90;8.63;;;;;;;18.14;66.14;100452.59;5076418;28;20032;-82
2022/05/24 04:37:23;;;;;;;28.70;8.13;;;;;;;18.26;65.68;100462.06;5074885;28;20041;-79
2022/05/24 04:39:49;;;;;;;11.82;5.22;;;;;;;18.34;65.29;100451.16;5075602;28;20025;-77
2022/05/24 04:42:24;;;;;;;25.08;6.07;;;;;;;18.36;64.68;100457.25;5065147;28;20483;-79
2022/05/24 04:45:00;;;;;;;28.65;6.97;;;;;;;18.45;64.08;100461.63;5054407;28;20379;-80
2022/05/24 04:47:31;;;;;;;33.53;6.47;;;;;;;18.52;64.06;100444.59;5054529;28;20158;-80
2022/05/24 04:50:00;;;;;;;25.48;6.95;;;;;;;18.62;63.96;100458.84;5053056;28;20029;-79
2022/05/24 04:52:37;;;;;;;23.63;7.25;;;;;;;18.68;64.21;100456.25;5054331;28;20078;-81
2022/05/24 04:55:09;;;;;;;17.48;6.10;;;;;;;18.77;64.50;100457.03;5054222;28;20491;-77
2022/05/24 04:57:35;;;;;;;36.20;8.40;;;;;;;18.81;64.69;100452.88;5054198;28;20479;-78
2022/05/24 05:00:01;;;;;;;35.63;7.57;;;;;;;18.83;65.33;100459.03;5053000;28;20039;-78
2022/05/24 05:02:27;;;;;;;27.75;7.53;;;;;;;18.86;65.41;100448.59;5053810;28;20037;-78
2022/05/24 05:04:53;;;;;;;21.63;6.07;;;;;;;18.90;65.21;100459.97;5053984;28;20029;-80
2022/05/24 05:07:19;;;;;;;17.25;5.60;;;;;;;18.91;64.51;100450.78;5052786;28;20033;-79
2022/05/24 05:09:47;;;;;;;38.33;7.10;;;;;;;19.10;64.33;100460.31;5053913;28;20039;-79
2022/05/24 05:12:13;;;;;;;13.77;6.13;;;;;;;19.23;63.94;100469.59;5054120;28;20074;-80
2022/05/24 05:14:40;;;;;;;22.90;5.78;;;;;;;19.23;63.57;100472.31;5056995;28;20028;-78
2022/05/24 05:17:06;;;;;;;18.73;6.38;;;;;;;19.30;63.48;100467.78;5054685;28;20052;-78
2022/05/24 05:19:31;;;;;;;32.08;5.95;;;;;;;19.34;63.54;100469.13;5052499;28;20025;-78
2022/05/24 05:21:57;;;;;;;17.80;5.20;;;;;;;19.23;64.03;100468.72;5053675;28;20376;-78
2022/05/24 05:24:24;;;;;;;15.20;6.80;;;;;;;19.28;63.91;100469.03;5053719;28;20025;-78
2022/05/24 05:26:49;;;;;;;14.85;5.20;;;;;;;19.44;63.90;100474.34;5053518;28;20104;-78
2022/05/24 05:29:15;;;;;;;17.38;3.90;;;;;;;19.51;64.01;100481.59;5053656;28;20112;-78
2022/05/24 05:31:41;;;;;;;15.40;4.35;;;;;;;19.52;64.10;100479.72;5053505;28;20032;-80
2022/05/24 05:34:07;;;;;;;14.23;4.47;;;;;;;19.57;64.17;100479.19;5053645;28;20036;-79
2022/05/24 05:36:33;;;;;;;11.95;4.43;;;;;;;19.63;64.02;100473.78;5053253;28;20052;-78
2022/05/24 05:38:59;;;;;;;11.98;3.65;;;;;;;19.66;63.60;100486.25;5053355;28;20156;-78
2022/05/24 05:41:28;;;;;;;11.32;4.43;;;;;;;19.77;63.21;100488.50;5051050;28;20111;-78
2022/05/24 05:43:54;;;;;;;22.88;5.82;;;;;;;19.83;62.82;100485.00;5053080;28;20025;-78
2022/05/24 05:46:19;;;;;;;13.95;6.80;;;;;;;19.86;64.36;100490.09;5053177;28;20737;-79
2022/05/24 05:48:45;;;;;;;18.70;8.05;;;;;;;19.75;65.67;100498.75;5053055;28;20035;-79
2022/05/24 05:51:12;;;;;;;19.02;8.25;;;;;;;19.80;65.65;100494.44;5053044;28;20029;-79
2022/05/24 05:53:38;;;;;;;16.90;8.65;;;;;;;19.93;65.37;100491.91;5052713;28;20112;-79
2022/05/24 05:56:07;;;;;;;20.65;7.93;;;;;;;20.03;65.16;100491.59;5053095;28;20036;-80
2022/05/24 05:58:33;;;;;;;23.52;7.57;;;;;;;20.05;65.18;100481.34;5052918;28;20537;-79
2022/05/24 06:01:00;;;;;;;30.42;8.88;;;;;;;20.10;65.32;100492.53;5052795;28;20025;-80
2022/05/24 06:03:26;;;;;;;19.27;7.90;;;;;;;20.28;65.09;100487.56;5052654;28;20032;-78
2022/05/24 06:05:53;;;;;;;17.40;7.35;;;;;;;20.37;65.04;100483.69;5052749;28;20032;-81
2022/05/24 06:08:18;;;;;;;40.28;21.95;;;;;;;20.54;63.89;100490.63;5052640;28;20027;-78
2022/05/24 06:10:44;;;;;;;28.83;7.82;;;;;;;20.67;63.38;100475.41;5052536;28;20025;-78
2022/05/24 06:13:10;;;;;;;37.88;8.68;;;;;;;20.90;62.97;100489.75;5051191;28;20029;-78
2022/05/24 06:15:37;;;;;;;24.02;7.10;;;;;;;20.87;62.27;100480.03;5052427;28;20120;-78
2022/05/24 06:18:04;;;;;;;27.52;7.85;;;;;;;20.98;62.21;100492.34;5052541;28;20031;-79
2022/05/24 06:20:32;;;;;;;27.40;8.60;;;;;;;21.10;62.45;100496.28;5052799;28;20103;-78
2022/05/24 06:22:57;;;;;;;24.13;7.97;;;;;;;20.91;62.89;100496.91;5052881;28;20461;-79
2022/05/24 06:25:26;;;;;;;19.50;7.43;;;;;;;20.74;63.36;100500.91;5052377;28;20024;-78
2022/05/24 06:27:53;;;;;;;22.50;8.75;;;;;;;20.80;63.31;100494.66;5052420;28;20025;-77
2022/05/24 06:30:20;;;;;;;28.48;7.70;;;;;;;20.83;62.59;100492.41;5052196;28;20479;-79
2022/05/24 06:32:47;;;;;;;18.30;6.65;;;;;;;20.79;62.83;100499.31;5052188;28;20020;-79
2022/05/24 06:35:12;;;;;;;18.00;6.63;;;;;;;20.83;62.07;100488.81;5052282;28;20025;-78
2022/05/24 06:37:40;;;;;;;19.23;5.18;;;;;;;20.81;60.93;100485.44;5052252;28;20045;-79
2022/05/24 06:40:08;;;;;;;16.80;5.45;;;;;;;20.86;60.41;100485.69;5052817;28;20557;-79
2022/05/24 06:42:34;;;;;;;20.80;5.88;;;;;;;20.88;60.54;100500.03;5052075;28;20056;-79
2022/05/24 06:45:01;;;;;;;16.48;5.72;;;;;;;20.87;60.71;100490.13;5051990;28;20031;-79
2022/05/24 06:47:27;;;;;;;37.40;6.97;;;;;;;20.90;60.01;100503.41;5051827;28;20406;-79
2022/05/24 06:49:53;;;;;;;11.38;4.18;;;;;;;20.72;58.95;100503.84;5055583;28;20044;-79
2022/05/24 06:52:19;;;;;;;10.95;4.82;;;;;;;20.28;60.00;100500.34;5071957;28;20021;-78
2022/05/24 06:54:44;;;;;;;12.50;4.28;;;;;;;20.15;61.20;100509.19;5072361;28;20022;-80
2022/05/24 06:57:09;;;;;;;11.02;5.68;;;;;;;20.10;62.45;100515.22;5053750;28;20504;-80
2022/05/24 07:02:25;;;;;;;17.77;6.65;;;;;;;19.91;65.65;100523.13;5051980;28;20036;-78
2022/05/24 07:05:00;;;;;;;19.60;6.70;;;;;;;19.69;66.39;100532.25;5051913;28;20032;-77
2022/05/24 07:07:27;;;;;;;34.38;7.57;;;;;;;19.63;67.92;100522.91;5054082;28;20764;-77
2022/05/24 07:09:53;;;;;;;19.75;5.63;;;;;;;19.56;67.04;100532.88;5071881;28;20402;-77
2022/05/24 07:12:21;;;;;;;24.80;7.07;;;;;;;19.38;67.71;100535.94;5071589;28;20027;-77
2022/05/24 07:14:48;;;;;;;15.73;7.07;;;;;;;19.41;68.69;100532.00;5071605;28;20029;-78
2022/05/24 07:17:14;;;;;;;19.58;7.45;;;;;;;19.50;69.02;100534.47;5063045;28;20403;-78
2022/05/24 07:19:40;;;;;;;23.27;6.22;;;;;;;19.51;69.04;100538.88;5051611;28;20482;-78
2022/05/24 07:22:06;;;;;;;9.55;6.13;;;;;;;19.48;69.39;100531.06;5051670;28;20021;-77
2022/05/24 07:24:32;;;;;;;16.95;5.15;;;;;;;19.63;69.04;100527.53;5055190;28;20032;-78
2022/05/24 07:26:57;;;;;;;10.48;4.43;;;;;;;19.71;69.09;100538.38;5069985;28;20032;-78
2022/05/24 07:29:23;;;;;;;20.77;5.07;;;;;;;19.90;68.38;100529.66;5055303;28;20024;-79
2022/05/24 07:31:49;;;;;;;16.15;5.18;;;;;;;19.94;68.61;100525.47;5055206;28;20031;-80
2022/05/24 07:34:14;;;;;;;10.20;5.40;;;;;;;20.04;67.83;100536.97;5060877;28;20516;-81
2022/05/24 07:36:40;;;;;;;13.90;5.30;;;;;;;20.21;67.88;100537.66;5057957;28;20119;-79
2022/05/24 07:39:05;;;;;;;15.85;4.55;;;;;;;20.31;67.55;100541.81;5066282;28;20490;-79
2022/05/24 07:46:58;;;;;;;9.80;4.22;;;;;;;20.44;66.54;100542.00;5075049;28;20128;-78
2022/05/24 07:49:24;;;;;;;15.35;4.55;;;;;;;20.48;66.55;100540.56;5074125;28;20467;-79
2022/05/24 07:51:49;;;;;;;9.50;3.70;;;;;;;20.62;66.49;100550.63;5074613;28;20104;-78
2022/05/24 07:54:15;;;;;;;16.10;4.45;;;;;;;20.54;65.82;100539.81;5074387;28;20025;-80
2022/05/24 07:56:42;;;;;;;10.73;3.30;;;;;;;20.48;64.75;100556.97;5072156;28;20510;-80
2022/05/24 07:59:08;;;;;;;15.98;4.28;;;;;;;20.45;65.05;100540.97;5063466;28;20025;-79
2022/05/24 12:38:17;;;;;;;24.58;3.05;;;;;;;22.16;63.01;100501.53;5120994;23;20137;-80
2022/05/24 12:40:43;;;;;;;10.20;2.97;;;;;;;22.30;62.82;100494.19;4975866;28;20038;-81
2022/05/24 12:43:15;;;;;;;16.25;3.58;;;;;;;22.52;62.33;100517.69;4969176;28;20125;-79
2022/05/24 12:45:44;;;;;;;14.00;2.78;;;;;;;22.64;60.55;100502.34;4961547;28;20030;-77
2022/05/24 12:48:25;;;;;;;6.68;2.60;;;;;;;22.69;60.75;100511.69;4978520;28;20032;-80
2022/05/24 12:50:59;;;;;;;13.10;3.22;;;;;;;22.50;60.91;100520.66;4995068;28;20061;-79
2022/05/24 12:53:25;;;;;;;8.98;2.50;;;;;;;22.52;61.35;100521.28;4994793;28;20022;-79
2022/05/24 12:56:21;;;;;;;6.95;2.65;;;;;;;22.40;61.42;100522.09;4994743;28;20033;-81
2022/05/24 12:58:50;;;;;;;10.43;2.70;;;;;;;22.29;61.13;100525.41;4993865;28;20030;-79
2022/05/24 13:01:21;;;;;;;7.82;3.15;;;;;;;22.39;61.57;100526.72;4977756;28;20034;-80
2022/05/24 13:04:20;;;;;;;8.55;2.33;;;;;;;22.42;61.51;100509.00;4976522;28;20037;-78
2022/05/24 13:06:46;;;;;;;7.15;2.70;;;;;;;22.75;61.05;100526.50;4994306;28;20034;-81
2022/05/24 13:09:16;;;;;;;13.98;3.60;;;;;;;22.89;59.43;100527.34;4994776;28;20046;-82
2022/05/24 13:11:44;;;;;;;11.98;3.40;;;;;;;23.04;59.04;100537.09;4994666;28;20057;-81
2022/05/24 13:14:34;;;;;;;13.05;3.60;;;;;;;22.91;59.49;100536.22;4981740;28;20027;-81
2022/05/24 13:17:00;;;;;;;9.73;3.40;;;;;;;22.78;58.83;100526.88;4980768;28;20038;-81
2022/05/24 13:19:25;;;;;;;9.73;3.05;;;;;;;22.52;59.86;100545.97;4994367;28;20403;-81
2022/05/24 13:21:53;;;;;;;21.67;3.53;;;;;;;22.19;61.09;100544.97;4993129;28;20599;-80
2022/05/24 13:24:19;;;;;;;26.25;4.53;;;;;;;22.24;61.58;100548.78;4994062;28;20026;-80
2022/05/24 13:27:03;;;;;;;18.10;4.35;;;;;;;22.09;60.97;100536.25;4994219;28;20061;-81
2022/05/24 13:29:29;;;;;;;18.52;3.63;;;;;;;22.00;60.87;100542.94;4990754;28;20057;-82
2022/05/24 13:34:58;;;;;;;26.55;3.15;;;;;;;21.94;61.27;100549.22;4984727;28;20050;-79
2022/05/24 13:37:26;;;;;;;8.40;2.47;;;;;;;21.76;61.05;100540.63;4988102;28;20056;-81
2022/05/24 13:39:53;;;;;;;8.90;2.70;;;;;;;21.62;61.09;100535.03;4966353;28;20027;-81
2022/05/24 13:42:28;;;;;;;14.80;2.45;;;;;;;21.60;61.30;100547.25;4988909;28;20053;-81
2022/05/24 13:45:13;;;;;;;9.07;3.05;;;;;;;21.46;61.99;100540.81;4972818;28;20073;-80
2022/05/24 13:47:54;;;;;;;11.65;2.70;;;;;;;21.40;61.88;100536.13;4970168;28;20066;-81
2022/05/24 13:50:29;;;;;;;6.78;2.45;;;;;;;20.99;62.83;100524.13;4990429;28;20081;-79
2022/05/24 13:53:04;;;;;;;7.40;2.85;;;;;;;21.00;63.12;100523.09;4986936;28;20026;-82
2022/05/24 13:55:40;;;;;;;10.40;2.53;;;;;;;20.75;62.76;100519.03;4983133;28;20097;-82
2022/05/24 13:58:27;;;;;;;14.02;2.92;;;;;;;20.49;63.15;100511.34;4984538;28;20035;-81
2022/05/24 14:01:11;;;;;;;10.90;3.45;;;;;;;20.34;63.66;100494.97;4993104;28;20121;-80
2022/05/24 14:03:40;;;;;;;4.22;2.28;;;;;;;20.44;63.71;100490.06;4994668;28;20088;-81
2022/05/24 14:06:12;;;;;;;7.88;2.90;;;;;;;20.50;63.38;100489.31;4987494;28;20056;-82
2022/05/24 14:08:40;;;;;;;7.50;2.10;;;;;;;20.45;63.30;100480.84;4990825;28;20045;-82
2022/05/24 14:11:13;;;;;;;4.70;2.30;;;;;;;20.39;63.60;100481.63;4987845;28;20042;-82
2022/05/24 14:13:43;;;;;;;7.93;2.60;;;;;;;20.27;64.09;100469.50;4969720;28;20034;-81
2022/05/24 14:16:10;;;;;;;6.63;2.53;;;;;;;20.33;64.21;100481.53;4983614;28;20057;-81
2022/05/24 14:18:36;;;;;;;5.85;1.90;;;;;;;20.37;63.95;100478.22;4983376;28;20034;-82
2022/05/24 14:21:03;;;;;;;6.75;2.90;;;;;;;20.39;64.26;100465.22;4976193;28;20026;-80
2022/05/24 14:23:29;;;;;;;7.82;2.72;;;;;;;20.38;64.69;100470.88;4992548;28;20109;-80
2022/05/24 14:25:54;;;;;;;8.80;3.28;;;;;;;20.29;64.97;100461.09;4975595;28;20121;-82
2022/05/24 14:28:20;;;;;;;3.47;1.85;;;;;;;20.28;64.81;100454.78;4993793;28;20030;-81
2022/05/24 14:30:47;;;;;;;4.40;1.98;;;;;;;20.15;65.44;100445.56;4975516;28;20459;-81
2022/05/24 14:33:15;;;;;;;10.88;2.10;;;;;;;20.09;65.46;100444.41;4975244;28;20832;-80
2022/05/24 14:35:41;;;;;;;17.77;4.57;;;;;;;20.08;66.03;100440.88;4965768;28;20038;-80
2022/05/24 14:38:07;;;;;;;13.98;5.20;;;;;;;19.99;66.54;100435.69;4992270;28;20116;-81
2022/05/24 14:40:38;;;;;;;18.20;3.72;;;;;;;19.86;66.71;100424.59;4992971;28;20045;-81
2022/05/24 14:43:06;;;;;;;11.13;2.73;;;;;;;19.99;66.52;100452.06;4994559;28;20018;-81
2022/05/24 14:45:31;;;;;;;8.00;2.72;;;;;;;19.90;66.70;100458.66;4992988;28;20030;-81
2022/05/24 14:48:06;;;;;;;7.80;2.40;;;;;;;19.82;67.15;100459.59;4993284;28;20033;-81
2022/05/24 14:50:34;;;;;;;11.38;2.50;;;;;;;19.80;67.27;100469.88;4991867;28;20041;-81
2022/05/24 14:53:00;;;;;;;9.23;3.03;;;;;;;19.87;66.74;100469.97;4992881;28;20431;-81
2022/05/24 14:55:26;;;;;;;3.60;1.40;;;;;;;19.95;66.00;100495.28;4992982;28;20041;-81
2022/05/24 14:57:53;;;;;;;8.38;2.90;;;;;;;20.01;65.29;100504.59;4992572;28;20054;-81
2022/05/24 15:00:22;;;;;;;4.30;2.45;;;;;;;20.07;65.35;100520.22;4992960;28;20030;-81
2022/05/24 15:02:48;;;;;;;7.22;3.65;;;;;;;20.10;65.25;100519.84;4993750;28;20039;-81
2022/05/24 15:05:14;;;;;;;17.73;3.35;;;;;;;19.99;65.74;100526.63;4992971;28;20033;-80
2022/05/24 15:16:05;;;;;;;8.00;2.40;;;;;;;19.63;66.14;100512.00;4984846;28;20427;-81
2022/05/24 15:18:31;;;;;;;12.63;3.05;;;;;;;19.66;66.40;100513.53;4966399;28;20022;-80
2022/05/24 15:20:56;;;;;;;21.13;4.43;;;;;;;19.66;65.84;100514.38;4992714;28;20022;-82
2022/05/24 15:23:27;;;;;;;4.80;2.30;;;;;;;19.67;65.61;100507.88;4982024;28;20036;-81
2022/05/24 15:25:59;;;;;;;8.80;2.53;;;;;;;19.72;65.67;100520.97;4990721;28;20148;-81
2022/05/24 15:28:30;;;;;;;12.15;3.08;;;;;;;19.76;65.13;100522.28;4992643;28;20025;-80
2022/05/24 15:30:56;;;;;;;7.82;2.40;;;;;;;19.76;65.31;100528.59;4992544;28;20380;-79
2022/05/24 15:33:22;;;;;;;9.95;2.47;;;;;;;19.75;64.63;100528.78;4993403;28;20022;-80
2022/05/24 15:35:48;;;;;;;3.22;1.85;;;;;;;19.50;64.44;100534.47;4994568;28;20042;-78
2022/05/24 15:38:15;;;;;;;13.38;2.78;;;;;;;19.52;65.12;100531.56;4997328;28;20046;-78
2022/05/24 15:40:41;;;;;;;5.82;2.13;;;;;;;19.47;64.85;100534.00;4975430;28;20042;-79
2022/05/24 15:43:06;;;;;;;16.92;2.78;;;;;;;19.43;65.03;100528.06;4992737;28;20457;-78
2022/05/24 15:45:33;;;;;;;3.83;1.95;;;;;;;19.39;64.80;100544.94;5005692;28;20092;-77
2022/05/24 15:47:59;;;;;;;5.95;1.70;;;;;;;19.34;65.11;100550.09;4997819;28;20041;-78
2022/05/24 15:50:25;;;;;;;18.10;2.63;;;;;;;19.31;65.51;100555.91;4995988;28;20027;-79
2022/05/24 15:52:50;;;;;;;12.63;2.80;;;;;;;19.19;65.71;100541.88;4996788;28;20053;-78
2022/05/24 15:55:16;;;;;;;11.13;4.10;;;;;;;19.32;65.80;100553.03;4978743;28;20026;-79
2022/05/24 15:57:42;;;;;;;16.90;3.67;;;;;;;19.34;65.82;100553.69;5008054;28;20471;-80
2022/05/24 16:00:11;;;;;;;6.45;2.22;;;;;;;19.41;65.61;100557.41;4995965;28;20038;-79
2022/05/24 16:02:37;;;;;;;14.10;2.88;;;;;;;19.44;65.15;100557.03;4997424;28;20037;-80
2022/05/24 16:10:33;;;;;;;4.95;1.90;;;;;;;19.28;65.56;100564.47;4995459;28;20061;-80
2022/05/24 16:12:59;;;;;;;7.32;2.40;;;;;;;19.21;65.96;100556.16;4985474;28;20117;-79
2022/05/24 16:15:25;;;;;;;10.68;2.38;;;;;;;19.22;65.10;100563.31;4996548;28;20053;-81
2022/05/24 16:18:01;;;;;;;9.13;2.53;;;;;;;19.14;65.63;100560.66;4992067;28;20061;-80
2022/05/24 16:20:27;;;;;;;11.10;3.17;;;;;;;19.10;65.84;100559.31;4978918;28;20030;-77
2022/05/24 16:22:52;;;;;;;15.85;2.88;;;;;;;19.03;65.91;100564.66;4997068;28;20096;-77
2022/05/24 16:25:18;;;;;;;25.73;3.90;;;;;;;19.12;66.17;100579.06;4987481;28;20101;-77
2022/05/24 16:27:44;;;;;;;5.80;2.58;;;;;;;19.17;66.41;100563.03;4995127;28;20466;-76
2022/05/24 16:30:12;;;;;;;11.88;3.10;;;;;;;19.13;66.60;100555.38;4994917;28;20058;-75
2022/05/24 16:32:38;;;;;;;7.93;2.63;;;;;;;19.17;66.69;100543.09;4995219;28;20034;-76
2022/05/24 16:35:05;;;;;;;8.95;2.38;;;;;;;19.19;66.66;100547.31;4994993;28;20088;-77